sensor_id;sensor_type;location;lat;lon;timestamp;P1;durP1;ratioP1;P2;durP2;ratioP2
27375;SDS011;14844;51.302;6.354;2023-02-02T00:01:09;25.20;;;4.13;;
27375;SDS011;14844;51.302;6.354;2023-02-02T00:03:35;24.35;;;4.25;;
27375;SDS011;14844;51.302;6.354;2023-02-02T00:06:09;30.20;;;4.45;;
27375;SDS011;14844;51.302;6.354;2023-02-02T00:08:50;35.40;;;5.28;;
27375;SDS011;14844;51.302;6.354;2023-02-02T00:11:26;27.67;;;4.63;;
27375;SDS011;14844;51.302;6.354;2023-02-02T00:14:01;25.77;;;4.70;;
27375;SDS011;14844;51.302;6.354;2023-02-02T00:16:40;23.07;;;4.17;;
27375;SDS011;14844;51.302;6.354;2023-02-02T00:19:30;27.13;;;4.53;;
27375;SDS011;14844;51.302;6.354;2023-02-02T00:22:37;25.83;;;4.93;;
27375;SDS011;14844;51.302;6.354;2023-02-02T00:25:27;31.88;;;4.55;;
27375;SDS011;14844;51.302;6.354;2023-02-02T00:28:07;25.60;;;4.53;;
27375;SDS011;14844;51.302;6.354;2023-02-02T00:30:44;26.90;;;4.55;;
27375;SDS011;14844;51.302;6.354;2023-02-02T00:33:21;31.60;;;5.15;;
27375;SDS011;14844;51.302;6.354;2023-02-02T00:36:00;37.05;;;4.50;;
27375;SDS011;14844;51.302;6.354;2023-02-02T00:38:36;24.48;;;4.68;;
27375;SDS011;14844;51.302;6.354;2023-02-02T00:41:27;25.67;;;4.40;;
27375;SDS011;14844;51.302;6.354;2023-02-02T00:44:00;24.85;;;3.83;;
27375;SDS011;14844;51.302;6.354;2023-02-02T00:46:55;27.95;;;4.45;;
27375;SDS011;14844;51.302;6.354;2023-02-02T00:49:35;26.60;;;4.68;;
27375;SDS011;14844;51.302;6.354;2023-02-02T00:52:25;26.20;;;4.38;;
27375;SDS011;14844;51.302;6.354;2023-02-02T00:55:15;23.35;;;4.85;;
27375;SDS011;14844;51.302;6.354;2023-02-02T00:57:41;26.70;;;5.25;;
27375;SDS011;14844;51.302;6.354;2023-02-02T01:00:10;34.30;;;4.60;;
27375;SDS011;14844;51.302;6.354;2023-02-02T01:02:39;23.55;;;4.30;;
27375;SDS011;14844;51.302;6.354;2023-02-02T01:05:04;29.05;;;5.15;;
27375;SDS011;14844;51.302;6.354;2023-02-02T01:07:30;32.10;;;5.40;;
27375;SDS011;14844;51.302;6.354;2023-02-02T01:09:56;30.75;;;5.15;;
27375;SDS011;14844;51.302;6.354;2023-02-02T01:12:22;26.65;;;4.18;;
27375;SDS011;14844;51.302;6.354;2023-02-02T01:14:48;27.50;;;4.22;;
27375;SDS011;14844;51.302;6.354;2023-02-02T01:17:13;20.95;;;4.00;;
27375;SDS011;14844;51.302;6.354;2023-02-02T01:19:39;30.48;;;5.07;;
27375;SDS011;14844;51.302;6.354;2023-02-02T01:22:05;28.52;;;4.65;;
27375;SDS011;14844;51.302;6.354;2023-02-02T01:24:39;29.98;;;5.00;;
27375;SDS011;14844;51.302;6.354;2023-02-02T01:27:13;33.85;;;5.45;;
27375;SDS011;14844;51.302;6.354;2023-02-02T01:29:43;29.83;;;5.18;;
27375;SDS011;14844;51.302;6.354;2023-02-02T01:32:19;24.67;;;4.47;;
27375;SDS011;14844;51.302;6.354;2023-02-02T01:34:51;35.53;;;4.43;;
27375;SDS011;14844;51.302;6.354;2023-02-02T01:37:24;26.95;;;4.82;;
27375;SDS011;14844;51.302;6.354;2023-02-02T01:39:52;25.73;;;4.30;;
27375;SDS011;14844;51.302;6.354;2023-02-02T01:42:19;28.80;;;4.93;;
27375;SDS011;14844;51.302;6.354;2023-02-02T01:47:54;25.90;;;4.95;;
27375;SDS011;14844;51.302;6.354;2023-02-02T01:50:27;25.00;;;4.32;;
27375;SDS011;14844;51.302;6.354;2023-02-02T01:53:03;24.52;;;4.07;;
27375;SDS011;14844;51.302;6.354;2023-02-02T01:55:43;26.10;;;4.78;;
27375;SDS011;14844;51.302;6.354;2023-02-02T01:58:26;28.85;;;4.35;;
27375;SDS011;14844;51.302;6.354;2023-02-02T02:01:01;29.17;;;4.50;;
27375;SDS011;14844;51.302;6.354;2023-02-02T02:03:36;29.63;;;4.97;;
27375;SDS011;14844;51.302;6.354;2023-02-02T02:06:06;28.73;;;4.53;;
27375;SDS011;14844;51.302;6.354;2023-02-02T02:08:38;33.47;;;5.18;;
27375;SDS011;14844;51.302;6.354;2023-02-02T02:11:19;28.38;;;4.50;;
27375;SDS011;14844;51.302;6.354;2023-02-02T02:14:11;24.27;;;4.20;;
27375;SDS011;14844;51.302;6.354;2023-02-02T02:17:12;23.33;;;4.17;;
27375;SDS011;14844;51.302;6.354;2023-02-02T02:20:22;29.27;;;4.60;;
27375;SDS011;14844;51.302;6.354;2023-02-02T02:32:47;37.30;;;5.82;;
27375;SDS011;14844;51.302;6.354;2023-02-02T02:35:31;31.65;;;4.97;;
27375;SDS011;14844;51.302;6.354;2023-02-02T02:38:17;35.70;;;5.15;;
27375;SDS011;14844;51.302;6.354;2023-02-02T02:41:06;35.20;;;5.15;;
27375;SDS011;14844;51.302;6.354;2023-02-02T02:43:39;30.20;;;5.88;;
27375;SDS011;14844;51.302;6.354;2023-02-02T02:46:12;26.35;;;4.72;;
27375;SDS011;14844;51.302;6.354;2023-02-02T02:48:51;38.88;;;5.30;;
27375;SDS011;14844;51.302;6.354;2023-02-02T03:00:17;26.60;;;5.07;;
27375;SDS011;14844;51.302;6.354;2023-02-02T03:03:04;28.85;;;5.32;;
27375;SDS011;14844;51.302;6.354;2023-02-02T03:08:43;33.70;;;5.40;;
27375;SDS011;14844;51.302;6.354;2023-02-02T03:11:16;29.58;;;5.43;;
27375;SDS011;14844;51.302;6.354;2023-02-02T03:13:43;33.47;;;5.35;;
27375;SDS011;14844;51.302;6.354;2023-02-02T03:18:55;32.28;;;5.20;;
27375;SDS011;14844;51.302;6.354;2023-02-02T03:21:30;27.15;;;4.68;;
27375;SDS011;14844;51.302;6.354;2023-02-02T03:24:20;35.72;;;4.93;;
27375;SDS011;14844;51.302;6.354;2023-02-02T03:26:56;28.65;;;4.95;;
27375;SDS011;14844;51.302;6.354;2023-02-02T03:29:22;30.50;;;5.13;;
27375;SDS011;14844;51.302;6.354;2023-02-02T03:32:41;30.95;;;4.90;;
27375;SDS011;14844;51.302;6.354;2023-02-02T03:35:18;31.58;;;4.70;;
27375;SDS011;14844;51.302;6.354;2023-02-02T03:38:08;29.25;;;4.70;;
27375;SDS011;14844;51.302;6.354;2023-02-02T03:40:56;30.88;;;4.75;;
27375;SDS011;14844;51.302;6.354;2023-02-02T03:43:33;23.88;;;4.97;;
27375;SDS011;14844;51.302;6.354;2023-02-02T03:46:21;34.03;;;4.85;;
27375;SDS011;14844;51.302;6.354;2023-02-02T03:49:09;30.23;;;5.72;;
27375;SDS011;14844;51.302;6.354;2023-02-02T03:51:56;33.80;;;6.03;;
27375;SDS011;14844;51.302;6.354;2023-02-02T03:54:32;24.73;;;5.32;;
27375;SDS011;14844;51.302;6.354;2023-02-02T03:57:03;28.10;;;5.03;;
27375;SDS011;14844;51.302;6.354;2023-02-02T04:00:00;27.17;;;4.70;;
27375;SDS011;14844;51.302;6.354;2023-02-02T04:02:31;31.73;;;5.30;;
27375;SDS011;14844;51.302;6.354;2023-02-02T04:05:09;22.88;;;5.63;;
27375;SDS011;14844;51.302;6.354;2023-02-02T04:07:35;34.40;;;6.05;;
27375;SDS011;14844;51.302;6.354;2023-02-02T04:10:09;27.92;;;5.10;;
27375;SDS011;14844;51.302;6.354;2023-02-02T04:12:55;27.00;;;5.07;;
27375;SDS011;14844;51.302;6.354;2023-02-02T04:15:27;26.02;;;4.88;;
27375;SDS011;14844;51.302;6.354;2023-02-02T04:18:05;33.70;;;5.47;;
27375;SDS011;14844;51.302;6.354;2023-02-02T04:20:31;28.63;;;4.80;;
27375;SDS011;14844;51.302;6.354;2023-02-02T04:22:59;29.52;;;4.22;;
27375;SDS011;14844;51.302;6.354;2023-02-02T04:25:27;30.35;;;5.22;;
27375;SDS011;14844;51.302;6.354;2023-02-02T04:27:56;33.13;;;5.18;;
27375;SDS011;14844;51.302;6.354;2023-02-02T04:30:30;27.60;;;4.53;;
27375;SDS011;14844;51.302;6.354;2023-02-02T04:32:59;33.78;;;5.72;;
27375;SDS011;14844;51.302;6.354;2023-02-02T04:35:24;26.95;;;4.60;;
27375;SDS011;14844;51.302;6.354;2023-02-02T04:37:50;26.83;;;5.25;;
27375;SDS011;14844;51.302;6.354;2023-02-02T04:40:19;27.05;;;4.75;;
27375;SDS011;14844;51.302;6.354;2023-02-02T04:43:01;37.50;;;5.15;;
27375;SDS011;14844;51.302;6.354;2023-02-02T04:45:37;29.70;;;4.85;;
27375;SDS011;14844;51.302;6.354;2023-02-02T04:51:17;33.08;;;5.35;;
27375;SDS011;14844;51.302;6.354;2023-02-02T04:53:45;36.88;;;5.30;;
27375;SDS011;14844;51.302;6.354;2023-02-02T04:56:11;27.55;;;5.13;;
27375;SDS011;14844;51.302;6.354;2023-02-02T04:58:42;35.63;;;5.35;;
27375;SDS011;14844;51.302;6.354;2023-02-02T05:01:09;30.85;;;5.25;;
27375;SDS011;14844;51.302;6.354;2023-02-02T05:03:44;29.05;;;4.80;;
27375;SDS011;14844;51.302;6.354;2023-02-02T05:06:11;32.95;;;4.93;;
27375;SDS011;14844;51.302;6.354;2023-02-02T05:08:39;34.47;;;5.57;;
27375;SDS011;14844;51.302;6.354;2023-02-02T05:11:07;34.50;;;5.15;;
27375;SDS011;14844;51.302;6.354;2023-02-02T05:13:37;27.38;;;5.57;;
27375;SDS011;14844;51.302;6.354;2023-02-02T05:16:05;30.35;;;4.93;;
27375;SDS011;14844;51.302;6.354;2023-02-02T05:18:31;27.38;;;4.88;;
27375;SDS011;14844;51.302;6.354;2023-02-02T05:21:03;27.65;;;4.82;;
27375;SDS011;14844;51.302;6.354;2023-02-02T05:23:34;31.17;;;5.38;;
27375;SDS011;14844;51.302;6.354;2023-02-02T05:26:03;33.03;;;5.28;;
27375;SDS011;14844;51.302;6.354;2023-02-02T05:28:29;30.77;;;5.07;;
27375;SDS011;14844;51.302;6.354;2023-02-02T05:30:57;26.05;;;4.60;;
27375;SDS011;14844;51.302;6.354;2023-02-02T05:33:23;30.48;;;5.65;;
27375;SDS011;14844;51.302;6.354;2023-02-02T05:35:48;38.05;;;5.60;;
27375;SDS011;14844;51.302;6.354;2023-02-02T05:38:14;28.85;;;4.97;;
27375;SDS011;14844;51.302;6.354;2023-02-02T05:40:40;29.73;;;5.45;;
27375;SDS011;14844;51.302;6.354;2023-02-02T05:43:06;35.42;;;5.55;;
27375;SDS011;14844;51.302;6.354;2023-02-02T05:45:34;33.53;;;5.75;;
27375;SDS011;14844;51.302;6.354;2023-02-02T05:47:59;31.67;;;5.70;;
27375;SDS011;14844;51.302;6.354;2023-02-02T05:50:25;29.70;;;5.07;;
27375;SDS011;14844;51.302;6.354;2023-02-02T05:52:51;28.85;;;5.55;;
27375;SDS011;14844;51.302;6.354;2023-02-02T05:55:16;29.30;;;5.15;;
27375;SDS011;14844;51.302;6.354;2023-02-02T05:57:43;31.05;;;5.72;;
27375;SDS011;14844;51.302;6.354;2023-02-02T06:00:09;39.65;;;6.95;;
27375;SDS011;14844;51.302;6.354;2023-02-02T06:05:10;33.33;;;5.15;;
27375;SDS011;14844;51.302;6.354;2023-02-02T06:07:36;40.60;;;6.70;;
27375;SDS011;14844;51.302;6.354;2023-02-02T06:10:01;34.85;;;6.47;;
27375;SDS011;14844;51.302;6.354;2023-02-02T06:12:27;30.23;;;6.82;;
27375;SDS011;14844;51.302;6.354;2023-02-02T06:14:56;34.17;;;7.57;;
27375;SDS011;14844;51.302;6.354;2023-02-02T06:17:21;34.60;;;7.22;;
27375;SDS011;14844;51.302;6.354;2023-02-02T06:19:55;33.17;;;6.57;;
27375;SDS011;14844;51.302;6.354;2023-02-02T06:22:20;31.35;;;6.35;;
27375;SDS011;14844;51.302;6.354;2023-02-02T06:24:46;32.83;;;6.25;;
27375;SDS011;14844;51.302;6.354;2023-02-02T06:27:12;32.22;;;6.80;;
27375;SDS011;14844;51.302;6.354;2023-02-02T06:29:37;28.05;;;6.78;;
27375;SDS011;14844;51.302;6.354;2023-02-02T06:32:05;33.40;;;6.28;;
27375;SDS011;14844;51.302;6.354;2023-02-02T06:34:31;36.85;;;7.13;;
27375;SDS011;14844;51.302;6.354;2023-02-02T06:36:56;32.90;;;6.80;;
27375;SDS011;14844;51.302;6.354;2023-02-02T06:39:30;27.55;;;6.30;;
27375;SDS011;14844;51.302;6.354;2023-02-02T06:42:01;34.13;;;6.45;;
27375;SDS011;14844;51.302;6.354;2023-02-02T06:44:27;29.45;;;6.70;;
27375;SDS011;14844;51.302;6.354;2023-02-02T06:46:53;25.35;;;6.50;;
27375;SDS011;14844;51.302;6.354;2023-02-02T06:49:27;28.58;;;6.00;;
27375;SDS011;14844;51.302;6.354;2023-02-02T06:52:18;32.47;;;7.10;;
27375;SDS011;14844;51.302;6.354;2023-02-02T06:55:33;31.60;;;6.93;;
27375;SDS011;14844;51.302;6.354;2023-02-02T06:58:05;30.17;;;6.18;;
27375;SDS011;14844;51.302;6.354;2023-02-02T07:00:31;29.63;;;6.35;;
27375;SDS011;14844;51.302;6.354;2023-02-02T07:03:05;33.17;;;6.57;;
27375;SDS011;14844;51.302;6.354;2023-02-02T07:05:31;31.77;;;6.70;;
27375;SDS011;14844;51.302;6.354;2023-02-02T07:08:02;41.22;;;6.97;;
27375;SDS011;14844;51.302;6.354;2023-02-02T07:10:35;28.83;;;6.38;;
27375;SDS011;14844;51.302;6.354;2023-02-02T07:13:10;31.40;;;6.90;;
27375;SDS011;14844;51.302;6.354;2023-02-02T07:15:39;28.67;;;6.45;;
27375;SDS011;14844;51.302;6.354;2023-02-02T07:18:13;33.22;;;6.85;;
27375;SDS011;14844;51.302;6.354;2023-02-02T07:20:39;33.45;;;6.53;;
27375;SDS011;14844;51.302;6.354;2023-02-02T07:23:04;33.25;;;6.60;;
27375;SDS011;14844;51.302;6.354;2023-02-02T07:25:35;25.53;;;6.20;;
27375;SDS011;14844;51.302;6.354;2023-02-02T07:28:01;31.05;;;6.82;;
27375;SDS011;14844;51.302;6.354;2023-02-02T07:33:34;37.70;;;7.28;;
27375;SDS011;14844;51.302;6.354;2023-02-02T07:36:06;31.08;;;6.72;;
27375;SDS011;14844;51.302;6.354;2023-02-02T07:38:58;36.97;;;6.63;;
27375;SDS011;14844;51.302;6.354;2023-02-02T07:41:36;33.92;;;7.05;;
27375;SDS011;14844;51.302;6.354;2023-02-02T07:44:05;35.35;;;7.60;;
27375;SDS011;14844;51.302;6.354;2023-02-02T07:46:31;36.28;;;8.50;;
27375;SDS011;14844;51.302;6.354;2023-02-02T07:48:57;35.70;;;9.10;;
27375;SDS011;14844;51.302;6.354;2023-02-02T07:51:25;37.05;;;9.68;;
27375;SDS011;14844;51.302;6.354;2023-02-02T07:53:52;41.72;;;9.32;;
27375;SDS011;14844;51.302;6.354;2023-02-02T07:56:23;36.15;;;10.70;;
27375;SDS011;14844;51.302;6.354;2023-02-02T07:58:52;45.35;;;11.77;;
27375;SDS011;14844;51.302;6.354;2023-02-02T08:01:18;42.83;;;10.68;;
27375;SDS011;14844;51.302;6.354;2023-02-02T08:03:46;45.65;;;12.35;;
27375;SDS011;14844;51.302;6.354;2023-02-02T08:06:33;41.35;;;12.80;;
27375;SDS011;14844;51.302;6.354;2023-02-02T08:09:01;42.08;;;12.68;;
27375;SDS011;14844;51.302;6.354;2023-02-02T08:11:29;45.10;;;13.77;;
27375;SDS011;14844;51.302;6.354;2023-02-02T08:13:57;43.15;;;13.55;;
27375;SDS011;14844;51.302;6.354;2023-02-02T08:16:24;44.67;;;13.65;;
27375;SDS011;14844;51.302;6.354;2023-02-02T08:18:51;47.92;;;13.82;;
27375;SDS011;14844;51.302;6.354;2023-02-02T08:21:17;50.33;;;13.55;;
27375;SDS011;14844;51.302;6.354;2023-02-02T08:23:43;43.25;;;12.73;;
27375;SDS011;14844;51.302;6.354;2023-02-02T08:26:13;39.47;;;12.48;;
27375;SDS011;14844;51.302;6.354;2023-02-02T08:28:41;45.40;;;13.50;;
27375;SDS011;14844;51.302;6.354;2023-02-02T08:31:12;42.47;;;12.55;;
27375;SDS011;14844;51.302;6.354;2023-02-02T08:33:43;51.72;;;13.00;;
27375;SDS011;14844;51.302;6.354;2023-02-02T08:36:12;46.15;;;12.52;;
27375;SDS011;14844;51.302;6.354;2023-02-02T08:38:38;38.88;;;13.18;;
27375;SDS011;14844;51.302;6.354;2023-02-02T08:41:05;43.45;;;13.15;;
27375;SDS011;14844;51.302;6.354;2023-02-02T08:43:31;57.97;;;13.88;;
27375;SDS011;14844;51.302;6.354;2023-02-02T08:45:57;53.90;;;14.43;;
27375;SDS011;14844;51.302;6.354;2023-02-02T08:48:22;45.88;;;13.23;;
27375;SDS011;14844;51.302;6.354;2023-02-02T08:50:52;57.33;;;14.80;;
27375;SDS011;14844;51.302;6.354;2023-02-02T08:53:21;55.70;;;14.15;;
27375;SDS011;14844;51.302;6.354;2023-02-02T08:55:48;45.38;;;14.15;;
27375;SDS011;14844;51.302;6.354;2023-02-02T08:58:28;50.88;;;13.18;;
27375;SDS011;14844;51.302;6.354;2023-02-02T09:01:04;43.15;;;12.23;;
27375;SDS011;14844;51.302;6.354;2023-02-02T09:03:55;49.10;;;13.80;;
27375;SDS011;14844;51.302;6.354;2023-02-02T09:06:32;45.38;;;13.65;;
27375;SDS011;14844;51.302;6.354;2023-02-02T09:08:59;49.78;;;12.55;;
27375;SDS011;14844;51.302;6.354;2023-02-02T09:11:34;55.15;;;13.85;;
27375;SDS011;14844;51.302;6.354;2023-02-02T09:14:20;39.08;;;12.20;;
27375;SDS011;14844;51.302;6.354;2023-02-02T09:16:56;42.25;;;12.95;;
27375;SDS011;14844;51.302;6.354;2023-02-02T09:19:22;39.08;;;12.93;;
27375;SDS011;14844;51.302;6.354;2023-02-02T09:22:17;46.35;;;11.65;;
27375;SDS011;14844;51.302;6.354;2023-02-02T09:24:43;39.97;;;12.02;;
27375;SDS011;14844;51.302;6.354;2023-02-02T09:27:22;43.42;;;11.43;;
27375;SDS011;14844;51.302;6.354;2023-02-02T09:29:52;41.60;;;12.60;;
27375;SDS011;14844;51.302;6.354;2023-02-02T09:32:20;53.95;;;12.52;;
27375;SDS011;14844;51.302;6.354;2023-02-02T09:34:46;38.97;;;10.25;;
27375;SDS011;14844;51.302;6.354;2023-02-02T09:37:15;43.95;;;11.43;;
27375;SDS011;14844;51.302;6.354;2023-02-02T09:39:54;37.15;;;10.70;;
27375;SDS011;14844;51.302;6.354;2023-02-02T09:42:28;38.72;;;11.00;;
27375;SDS011;14844;51.302;6.354;2023-02-02T09:48:04;42.38;;;11.05;;
27375;SDS011;14844;51.302;6.354;2023-02-02T09:51:20;31.15;;;9.32;;
27375;SDS011;14844;51.302;6.354;2023-02-02T09:53:51;42.45;;;9.95;;
27375;SDS011;14844;51.302;6.354;2023-02-02T09:56:58;37.17;;;10.38;;
27375;SDS011;14844;51.302;6.354;2023-02-02T09:59:32;48.38;;;10.38;;
27375;SDS011;14844;51.302;6.354;2023-02-02T10:02:17;36.92;;;9.07;;
27375;SDS011;14844;51.302;6.354;2023-02-02T10:05:01;39.50;;;8.55;;
27375;SDS011;14844;51.302;6.354;2023-02-02T10:07:37;37.45;;;9.07;;
27375;SDS011;14844;51.302;6.354;2023-02-02T10:10:42;38.90;;;9.00;;
27375;SDS011;14844;51.302;6.354;2023-02-02T10:13:15;28.90;;;7.97;;
27375;SDS011;14844;51.302;6.354;2023-02-02T10:16:01;36.78;;;9.65;;
27375;SDS011;14844;51.302;6.354;2023-02-02T10:18:44;31.63;;;7.38;;
27375;SDS011;14844;51.302;6.354;2023-02-02T10:24:04;34.20;;;7.72;;
27375;SDS011;14844;51.302;6.354;2023-02-02T10:26:37;31.48;;;6.60;;
27375;SDS011;14844;51.302;6.354;2023-02-02T10:29:14;26.38;;;6.78;;
27375;SDS011;14844;51.302;6.354;2023-02-02T10:34:41;31.60;;;6.53;;
27375;SDS011;14844;51.302;6.354;2023-02-02T10:40:09;29.73;;;7.35;;
27375;SDS011;14844;51.302;6.354;2023-02-02T10:43:15;25.13;;;5.53;;
27375;SDS011;14844;51.302;6.354;2023-02-02T10:45:52;29.42;;;5.60;;
27375;SDS011;14844;51.302;6.354;2023-02-02T10:48:22;29.13;;;5.70;;
27375;SDS011;14844;51.302;6.354;2023-02-02T10:50:56;25.83;;;5.78;;
27375;SDS011;14844;51.302;6.354;2023-02-02T10:53:27;28.35;;;5.20;;
27375;SDS011;14844;51.302;6.354;2023-02-02T10:58:26;32.60;;;5.78;;
27375;SDS011;14844;51.302;6.354;2023-02-02T11:00:55;24.90;;;4.72;;
27375;SDS011;14844;51.302;6.354;2023-02-02T11:03:24;21.63;;;4.78;;
27375;SDS011;14844;51.302;6.354;2023-02-02T11:05:53;23.95;;;4.97;;
27375;SDS011;14844;51.302;6.354;2023-02-02T11:08:41;27.58;;;5.45;;
27375;SDS011;14844;51.302;6.354;2023-02-02T11:16:32;18.48;;;4.35;;
27375;SDS011;14844;51.302;6.354;2023-02-02T11:19:00;34.67;;;5.25;;
27375;SDS011;14844;51.302;6.354;2023-02-02T11:22:09;22.85;;;4.68;;
27375;SDS011;14844;51.302;6.354;2023-02-02T11:24:49;21.50;;;4.85;;
27375;SDS011;14844;51.302;6.354;2023-02-02T11:29:48;27.05;;;5.45;;
27375;SDS011;14844;51.302;6.354;2023-02-02T11:32:27;21.05;;;4.47;;
27375;SDS011;14844;51.302;6.354;2023-02-02T11:37:38;24.15;;;5.10;;
27375;SDS011;14844;51.302;6.354;2023-02-02T11:43:18;23.98;;;4.50;;
27375;SDS011;14844;51.302;6.354;2023-02-02T11:45:50;16.60;;;4.82;;
27375;SDS011;14844;51.302;6.354;2023-02-02T11:48:23;20.55;;;4.70;;
27375;SDS011;14844;51.302;6.354;2023-02-02T11:50:59;23.40;;;4.80;;
27375;SDS011;14844;51.302;6.354;2023-02-02T11:55:58;24.67;;;5.25;;
27375;SDS011;14844;51.302;6.354;2023-02-02T11:58:45;26.02;;;4.90;;
27375;SDS011;14844;51.302;6.354;2023-02-02T12:01:26;27.65;;;4.60;;
27375;SDS011;14844;51.302;6.354;2023-02-02T12:06:43;27.45;;;7.63;;
27375;SDS011;14844;51.302;6.354;2023-02-02T12:09:11;24.20;;;4.82;;
27375;SDS011;14844;51.302;6.354;2023-02-02T12:20:56;24.02;;;5.15;;
27375;SDS011;14844;51.302;6.354;2023-02-02T12:36:37;23.35;;;4.35;;
27375;SDS011;14844;51.302;6.354;2023-02-02T12:49:13;21.88;;;5.03;;
27375;SDS011;14844;51.302;6.354;2023-02-02T12:55:43;25.30;;;5.10;;
27375;SDS011;14844;51.302;6.354;2023-02-02T13:04:31;23.25;;;5.80;;
27375;SDS011;14844;51.302;6.354;2023-02-02T13:11:07;27.95;;;5.80;;
27375;SDS011;14844;51.302;6.354;2023-02-02T13:13:28;21.38;;;5.22;;
27375;SDS011;14844;51.302;6.354;2023-02-02T13:19:02;24.58;;;5.97;;
27375;SDS011;14844;51.302;6.354;2023-02-02T13:22:16;26.08;;;6.20;;
27375;SDS011;14844;51.302;6.354;2023-02-02T13:49:50;18.50;;;6.20;;
27375;SDS011;14844;51.302;6.354;2023-02-02T13:52:24;21.67;;;5.97;;
27375;SDS011;14844;51.302;6.354;2023-02-02T13:58:02;27.52;;;6.55;;
27375;SDS011;14844;51.302;6.354;2023-02-02T14:01:29;21.27;;;6.37;;
27375;SDS011;14844;51.302;6.354;2023-02-02T14:03:41;23.75;;;7.00;;
27375;SDS011;14844;51.302;6.354;2023-02-02T14:06:16;21.73;;;6.47;;
27375;SDS011;14844;51.302;6.354;2023-02-02T14:08:45;19.80;;;6.05;;
27375;SDS011;14844;51.302;6.354;2023-02-02T14:34:47;27.42;;;8.00;;
27375;SDS011;14844;51.302;6.354;2023-02-02T14:42:45;22.48;;;8.90;;
27375;SDS011;14844;51.302;6.354;2023-02-02T14:45:34;22.95;;;8.93;;
27375;SDS011;14844;51.302;6.354;2023-02-02T14:48:17;20.80;;;9.02;;
27375;SDS011;14844;51.302;6.354;2023-02-02T14:50:48;21.38;;;9.75;;
27375;SDS011;14844;51.302;6.354;2023-02-02T14:53:16;19.52;;;9.35;;
27375;SDS011;14844;51.302;6.354;2023-02-02T14:56:04;18.83;;;9.27;;
27375;SDS011;14844;51.302;6.354;2023-02-02T14:58:57;23.42;;;10.40;;
27375;SDS011;14844;51.302;6.354;2023-02-02T15:01:25;25.42;;;10.80;;
27375;SDS011;14844;51.302;6.354;2023-02-02T15:06:47;24.65;;;11.77;;
27375;SDS011;14844;51.302;6.354;2023-02-02T15:25:22;28.27;;;10.85;;
27375;SDS011;14844;51.302;6.354;2023-02-02T15:27:56;26.02;;;11.93;;
27375;SDS011;14844;51.302;6.354;2023-02-02T15:30:25;27.70;;;11.60;;
27375;SDS011;14844;51.302;6.354;2023-02-02T15:32:54;22.50;;;11.55;;
27375;SDS011;14844;51.302;6.354;2023-02-02T15:35:22;28.65;;;13.27;;
27375;SDS011;14844;51.302;6.354;2023-02-02T15:37:52;29.88;;;13.30;;
27375;SDS011;14844;51.302;6.354;2023-02-02T15:40:23;36.42;;;13.85;;
27375;SDS011;14844;51.302;6.354;2023-02-02T15:43:03;30.63;;;15.43;;
27375;SDS011;14844;51.302;6.354;2023-02-02T15:45:46;30.38;;;15.13;;
27375;SDS011;14844;51.302;6.354;2023-02-02T15:48:21;31.65;;;15.32;;
27375;SDS011;14844;51.302;6.354;2023-02-02T15:50:48;37.42;;;16.13;;
27375;SDS011;14844;51.302;6.354;2023-02-02T15:54:01;34.53;;;17.15;;
27375;SDS011;14844;51.302;6.354;2023-02-02T15:58:48;34.83;;;16.48;;
27375;SDS011;14844;51.302;6.354;2023-02-02T16:01:17;37.08;;;17.95;;
27375;SDS011;14844;51.302;6.354;2023-02-02T16:06:34;34.85;;;19.65;;
27375;SDS011;14844;51.302;6.354;2023-02-02T16:09:03;35.85;;;20.15;;
27375;SDS011;14844;51.302;6.354;2023-02-02T16:11:29;41.08;;;21.27;;
27375;SDS011;14844;51.302;6.354;2023-02-02T16:13:57;34.92;;;21.85;;
27375;SDS011;14844;51.302;6.354;2023-02-02T16:16:32;45.28;;;22.73;;
27375;SDS011;14844;51.302;6.354;2023-02-02T16:19:00;42.65;;;23.20;;
27375;SDS011;14844;51.302;6.354;2023-02-02T16:21:36;63.03;;;34.83;;
27375;SDS011;14844;51.302;6.354;2023-02-02T16:26:36;69.78;;;36.58;;
27375;SDS011;14844;51.302;6.354;2023-02-02T16:29:02;52.85;;;28.25;;
27375;SDS011;14844;51.302;6.354;2023-02-02T16:31:29;74.95;;;41.80;;
27375;SDS011;14844;51.302;6.354;2023-02-02T16:33:56;49.65;;;30.17;;
27375;SDS011;14844;51.302;6.354;2023-02-02T16:36:25;55.95;;;33.88;;
27375;SDS011;14844;51.302;6.354;2023-02-02T16:38:53;53.00;;;33.53;;
27375;SDS011;14844;51.302;6.354;2023-02-02T16:41:34;51.95;;;33.50;;
27375;SDS011;14844;51.302;6.354;2023-02-02T16:47:29;71.68;;;40.15;;
27375;SDS011;14844;51.302;6.354;2023-02-02T16:50:16;58.28;;;36.67;;
27375;SDS011;14844;51.302;6.354;2023-02-02T16:52:57;73.72;;;40.88;;
27375;SDS011;14844;51.302;6.354;2023-02-02T16:55:26;64.00;;;38.75;;
27375;SDS011;14844;51.302;6.354;2023-02-02T16:57:55;59.17;;;39.42;;
27375;SDS011;14844;51.302;6.354;2023-02-02T17:00:23;67.53;;;39.60;;
27375;SDS011;14844;51.302;6.354;2023-02-02T17:02:52;64.38;;;40.22;;
27375;SDS011;14844;51.302;6.354;2023-02-02T17:05:26;61.92;;;40.42;;
27375;SDS011;14844;51.302;6.354;2023-02-02T17:08:01;71.05;;;42.72;;
27375;SDS011;14844;51.302;6.354;2023-02-02T17:10:36;69.95;;;41.42;;
27375;SDS011;14844;51.302;6.354;2023-02-02T17:13:33;62.42;;;41.53;;
27375;SDS011;14844;51.302;6.354;2023-02-02T17:15:55;68.43;;;43.83;;
27375;SDS011;14844;51.302;6.354;2023-02-02T17:18:21;64.43;;;43.78;;
27375;SDS011;14844;51.302;6.354;2023-02-02T17:20:47;68.55;;;44.42;;
27375;SDS011;14844;51.302;6.354;2023-02-02T17:23:20;71.13;;;43.25;;
27375;SDS011;14844;51.302;6.354;2023-02-02T17:25:46;71.05;;;44.40;;
27375;SDS011;14844;51.302;6.354;2023-02-02T17:28:19;71.00;;;45.38;;
27375;SDS011;14844;51.302;6.354;2023-02-02T17:30:47;74.97;;;45.63;;
27375;SDS011;14844;51.302;6.354;2023-02-02T17:33:16;82.00;;;46.50;;
27375;SDS011;14844;51.302;6.354;2023-02-02T17:35:43;74.07;;;44.83;;
27375;SDS011;14844;51.302;6.354;2023-02-02T17:38:10;77.32;;;45.67;;
27375;SDS011;14844;51.302;6.354;2023-02-02T17:40:36;74.40;;;45.05;;
27375;SDS011;14844;51.302;6.354;2023-02-02T17:43:03;75.30;;;44.90;;
27375;SDS011;14844;51.302;6.354;2023-02-02T17:45:32;85.03;;;48.35;;
27375;SDS011;14844;51.302;6.354;2023-02-02T17:47:59;73.50;;;46.60;;
27375;SDS011;14844;51.302;6.354;2023-02-02T17:50:33;78.90;;;45.63;;
27375;SDS011;14844;51.302;6.354;2023-02-02T17:56:21;81.15;;;45.50;;
27375;SDS011;14844;51.302;6.354;2023-02-02T17:59:27;88.78;;;47.42;;
27375;SDS011;14844;51.302;6.354;2023-02-02T18:02:16;84.28;;;46.42;;
27375;SDS011;14844;51.302;6.354;2023-02-02T18:04:58;88.15;;;47.95;;
27375;SDS011;14844;51.302;6.354;2023-02-02T18:07:31;82.72;;;46.83;;
27375;SDS011;14844;51.302;6.354;2023-02-02T18:10:04;81.15;;;45.10;;
27375;SDS011;14844;51.302;6.354;2023-02-02T18:12:31;86.65;;;47.70;;
27375;SDS011;14844;51.302;6.354;2023-02-02T18:15:01;84.63;;;45.13;;
27375;SDS011;14844;51.302;6.354;2023-02-02T18:20:43;85.88;;;45.03;;
27375;SDS011;14844;51.302;6.354;2023-02-02T18:23:30;86.70;;;45.97;;
27375;SDS011;14844;51.302;6.354;2023-02-02T18:26:16;85.90;;;44.83;;
27375;SDS011;14844;51.302;6.354;2023-02-02T18:28:49;75.65;;;43.20;;
27375;SDS011;14844;51.302;6.354;2023-02-02T18:31:38;90.15;;;44.55;;
27375;SDS011;14844;51.302;6.354;2023-02-02T18:34:17;86.45;;;45.95;;
27375;SDS011;14844;51.302;6.354;2023-02-02T18:36:58;79.50;;;42.78;;
27375;SDS011;14844;51.302;6.354;2023-02-02T18:40:04;79.78;;;41.45;;
27375;SDS011;14844;51.302;6.354;2023-02-02T18:43:28;86.00;;;44.92;;
27375;SDS011;14844;51.302;6.354;2023-02-02T18:49:06;80.82;;;42.13;;